Colorado Springs, CO (80922)

2:24 AM MDT on May 23, 2015 (GMT -0600)
Stetson Hills | | Change Station
CLOSE
Current Station
Personal Weather Station
Location: Colorado Springs, CO
Elevation: 6584 ft
Nearby Weather Stations

Elev 6584 ft 38.90 °N, 104.71 °W | Updated 20 seconds ago

Mostly Cloudy
Mostly Cloudy
46.6 °F
Feels Like 47 °F
N
0.0
Wind Variable Wind from South
Gusts 5.4 mph

Today
High -- | Low -- °F
--% Chance of Precip.
Yesterday
High -- | Low -- °F
Precip. -- in
5:40 AM 8:11 PM
Waxing Crescent, 28% visible
Pressure 29.91 in
Visibility 10.0 miles
Clouds Scattered Clouds 4000 ft
Mostly Cloudy 8500 ft
Mostly Cloudy 20000 ft
Windchill 47 °F
Dew Point 44 °F
Humidity 92%
Rainfall 0.00 in
Snow Depth Not available.
UV 0 out of 12
Pollen 4.90 out of 12
Air Quality Not available.
Flu Activity Sporadic
METAR KCOS 230754Z 02014KT 10SM SCT040 BKN085 BKN200 09/07 A3004 RMK AO2 WSHFT 0723 RAB08E41 TSE33 SLP126 VCSH W-N P0001 T00890067

More Conditions Fewer Conditions

Pressure 29.91 in
Visibility 10.0 miles
Clouds Scattered Clouds 4000 ft
Mostly Cloudy 8500 ft
Mostly Cloudy 20000 ft
Windchill 47 °F
Dew Point 44 °F
Humidity 92%
Rainfall 0.00 in
Snow Depth Not available.
UV 0 out of 12
Pollen 4.90 out of 12
Air Quality Not available.
Flu Activity Sporadic
METAR KCOS 230754Z 02014KT 10SM SCT040 BKN085 BKN200 09/07 A3004 RMK AO2 WSHFT 0723 RAB08E41 TSE33 SLP126 VCSH W-N P0001 T00890067

More Conditions Fewer Conditions

10-Day Weather Forecast

Almanac

Astronomy

May. 23, 2015 Rise Set
Actual Time
Civil Twilight
Nautical Twilight
Astronomical Twilight
Moon
Length of Visible Light
Length of Day
Tomorrow will be .
, % of the Moon is Illuminated

Today's Extremes

State Highs State Lows

Community

WunderPhotos

Upload Photos

1,823,401 photos uploaded!

WunderBlogs® & News

Nearby

Air Quality

  Air Quality AQ Index Pollutant
Not available.

Snow Depth

Station Depth Elevation

Earthquake Activity

City Distance Mag. Time & Date
Minimum magnitude displayed is 2.5.

Coastal Water Temperatures

Place Temperature

Stations

Nearby Weather Stations

Station Location Temp. Windchill Dew Point Humidity Wind Precip. Elev Updated Type